Time;durP1;ratioP1;P1;durP2;ratioP2;P2;SDS_P1;SDS_P2;PMS_P1;PMS_P2;Temp;Humidity;BMP_temperature;BMP_pressure;BME280_temperature;BME280_humidity;BME280_pressure;Samples;Min_cycle;Max_cycle;Signal;HPM_P1;HPM_P2
2021/05/30 00:02:24;;;;;;;;;;;;;;;23.06;45.84;100046.47;1681383;85;20280;-79
2021/05/30 00:04:50;;;;;;;;;;;;;;;23.03;46.03;100045.62;1681660;85;20285;-78
2021/05/30 00:07:18;;;;;;;;;;;;;;;23.02;46.20;100049.41;1681228;84;20209;-79
2021/05/30 00:09:46;;;;;;;;;;;;;;;22.96;46.46;100046.32;1674989;84;20270;-79
2021/05/30 00:12:13;;;;;;;;;;;;;;;22.93;46.75;100041.34;1674130;84;20247;-78
2021/05/30 00:14:40;;;;;;;;;;;;;;;22.89;46.90;100047.88;1673880;84;20254;-77
2021/05/30 00:17:08;;;;;;;;;;;;;;;22.85;47.07;100043.13;1674104;84;20275;-77
2021/05/30 00:19:37;;;;;;;;;;;;;;;22.80;47.30;100039.78;1675240;85;20239;-78
2021/05/30 00:22:04;;;;;;;;;;;;;;;22.77;47.49;100046.55;1675564;84;20247;-77
2021/05/30 00:24:30;;;;;;;;;;;;;;;22.73;47.72;100044.02;1674421;85;20743;-78
2021/05/30 00:26:56;;;;;;;;;;;;;;;22.71;47.89;100046.19;1675675;84;20194;-78
2021/05/30 00:29:22;;;;;;;;;;;;;;;22.69;48.08;100044.77;1675629;84;20178;-78
2021/05/30 00:31:48;;;;;;;;;;;;;;;22.69;48.24;100050.23;1677327;84;20182;-77
2021/05/30 00:34:14;;;;;;;;;;;;;;;22.69;48.37;100049.69;1675186;84;20211;-77
2021/05/30 00:36:40;;;;;;;;;;;;;;;22.72;47.84;100041.55;1675537;85;20178;-78
2021/05/30 00:39:08;;;;;;;;;;;;;;;22.71;47.01;100048.92;1674245;84;20274;-78
2021/05/30 00:41:34;;;;;;;;;;;;;;;22.73;46.39;100049.48;1675235;84;20138;-78
2021/05/30 00:44:00;;;;;;;;;;;;;;;22.75;45.94;100060.97;1675514;85;20591;-78
2021/05/30 00:46:29;;;;;;;;;;;;;;;22.75;45.76;100056.88;1675756;85;20179;-78
2021/05/30 00:48:54;;;;;;;;;;;;;;;22.75;45.76;100059.61;1675487;85;20524;-77
2021/05/30 00:51:20;;;;;;;;;;;;;;;22.77;45.63;100061.57;1675594;84;20254;-78
2021/05/30 00:53:47;;;;;;;;;;;;;;;22.77;45.47;100062.11;1675353;84;20211;-78
2021/05/30 00:56:14;;;;;;;;;;;;;;;22.74;45.36;100059.86;1675667;84;20246;-78
2021/05/30 00:58:40;;;;;;;;;;;;;;;22.72;45.08;100057.39;1676969;83;20147;-78
2021/05/30 01:01:07;;;;;;;;;;;;;;;22.70;45.02;100058.16;1676006;84;20245;-77
2021/05/30 01:03:35;;;;;;;;;;;;;;;22.70;45.00;100051.33;1677051;84;20244;-77
2021/05/30 01:06:02;;;;;;;;;;;;;;;22.64;45.12;100056.97;1674082;85;20131;-79
2021/05/30 01:08:29;;;;;;;;;;;;;;;22.61;45.22;100056.91;1675554;84;20167;-78
2021/05/30 01:10:56;;;;;;;;;;;;;;;22.58;45.37;100057.43;1675403;84;20233;-78
2021/05/30 01:13:25;;;;;;;;;;;;;;;22.56;45.50;100058.20;1675326;84;20183;-78
2021/05/30 01:15:51;;;;;;;;;;;;;;;22.52;45.83;100060.59;1660356;85;20167;-78
2021/05/30 01:18:21;;;;;;;;;;;;;;;22.98;45.44;100058.67;1675188;85;20170;-78
2021/05/30 01:20:49;;;;;;;;;;;;;;;22.67;46.49;100064.67;1677066;84;20143;-78
2021/05/30 01:23:15;;;;;;;;;;;;;;;22.54;47.12;100054.91;1675375;85;20575;-78
2021/05/30 01:25:42;;;;;;;;;;;;;;;22.51;47.44;100056.75;1675501;84;20147;-78
2021/05/30 01:28:08;;;;;;;;;;;;;;;22.47;47.76;100056.95;1675231;85;20223;-78
2021/05/30 01:30:35;;;;;;;;;;;;;;;22.48;47.95;100059.45;1675660;84;20247;-78
2021/05/30 01:33:01;;;;;;;;;;;;;;;22.50;48.05;100058.66;1675337;84;20167;-78
2021/05/30 01:35:28;;;;;;;;;;;;;;;22.49;48.17;100057.55;1675628;84;20543;-78
2021/05/30 01:37:54;;;;;;;;;;;;;;;22.46;48.26;100058.02;1677522;84;20167;-78
2021/05/30 01:40:21;;;;;;;;;;;;;;;22.40;48.40;100058.48;1675477;84;20293;-78
2021/05/30 01:42:49;;;;;;;;;;;;;;;22.36;48.54;100062.77;1675503;84;20199;-77
2021/05/30 01:45:16;;;;;;;;;;;;;;;22.36;48.56;100058.68;1676486;85;20151;-77
2021/05/30 01:47:43;;;;;;;;;;;;;;;22.33;48.63;100054.23;1675609;84;20159;-77
2021/05/30 01:50:12;;;;;;;;;;;;;;;22.28;48.75;100057.16;1675033;85;20575;-78
2021/05/30 01:52:38;;;;;;;;;;;;;;;22.24;48.86;100060.09;1675343;85;20550;-79
2021/05/30 01:55:07;;;;;;;;;;;;;;;22.59;48.20;100057.72;1675459;84;20547;-79
2021/05/30 01:57:42;;;;;;;;;;;;;;;22.38;48.60;100063.34;1675680;85;20167;-79
2021/05/30 02:00:10;;;;;;;;;;;;;;;22.22;48.97;100060.88;1671168;85;20171;-79
2021/05/30 02:02:38;;;;;;;;;;;;;;;22.21;49.07;100061.96;1675453;84;20547;-79
2021/05/30 02:05:05;;;;;;;;;;;;;;;22.19;49.06;100069.55;1675493;85;20164;-79
2021/05/30 02:07:32;;;;;;;;;;;;;;;22.18;49.07;100067.89;1675548;85;20139;-79
2021/05/30 02:09:58;;;;;;;;;;;;;;;22.16;49.13;100057.75;1675481;85;20255;-79
2021/05/30 02:12:25;;;;;;;;;;;;;;;22.12;49.15;100066.16;1675652;85;20555;-78
2021/05/30 02:14:55;;;;;;;;;;;;;;;22.10;49.15;100066.06;1675663;84;20259;-79
2021/05/30 02:17:21;;;;;;;;;;;;;;;22.07;49.18;100068.72;1675330;84;20636;-77
2021/05/30 02:19:48;;;;;;;;;;;;;;;22.04;49.22;100078.23;1675358;85;20227;-77
2021/05/30 02:22:14;;;;;;;;;;;;;;;21.99;49.37;100078.14;1675683;84;20218;-77
2021/05/30 02:24:43;;;;;;;;;;;;;;;21.96;49.47;100075.06;1675895;84;20218;-77
2021/05/30 02:27:09;;;;;;;;;;;;;;;21.92;49.55;100084.80;1677753;84;20151;-77
2021/05/30 02:29:37;;;;;;;;;;;;;;;21.90;49.62;100084.22;1675558;84;20237;-78
2021/05/30 02:32:06;;;;;;;;;;;;;;;21.89;49.66;100089.36;1675163;84;20532;-78
2021/05/30 02:34:32;;;;;;;;;;;;;;;21.86;49.73;100084.41;1675613;84;20207;-79
2021/05/30 02:36:58;;;;;;;;;;;;;;;21.83;49.87;100083.52;1675487;85;20584;-78
2021/05/30 02:39:24;;;;;;;;;;;;;;;21.79;49.95;100089.44;1675466;84;20151;-78
2021/05/30 02:41:50;;;;;;;;;;;;;;;21.82;50.06;100092.23;1675602;85;20238;-78
2021/05/30 02:44:16;;;;;;;;;;;;;;;21.86;50.16;100085.23;1675396;84;20258;-78
2021/05/30 02:46:42;;;;;;;;;;;;;;;21.90;50.17;100086.95;1675102;84;20211;-78
2021/05/30 02:49:08;;;;;;;;;;;;;;;21.95;50.07;100095.23;1674960;84;20286;-78
2021/05/30 02:51:34;;;;;;;;;;;;;;;22.00;49.90;100092.60;1642841;85;20537;-78
2021/05/30 02:54:00;;;;;;;;;;;;;;;22.06;49.66;100091.63;1675595;84;20207;-78
2021/05/30 02:56:27;;;;;;;;;;;;;;;22.13;49.02;100088.27;1675659;85;20215;-78
2021/05/30 02:58:53;;;;;;;;;;;;;;;22.19;48.39;100091.37;1675793;84;20195;-78
2021/05/30 03:01:20;;;;;;;;;;;;;;;22.26;48.15;100096.16;1675734;84;20203;-79
2021/05/30 03:03:47;;;;;;;;;;;;;;;22.32;47.79;100092.16;1676012;85;20167;-78
2021/05/30 03:06:14;;;;;;;;;;;;;;;22.34;47.44;100084.54;1676276;85;20232;-77
2021/05/30 03:08:40;;;;;;;;;;;;;;;22.40;47.13;100086.31;1676472;84;20243;-78
2021/05/30 03:11:08;;;;;;;;;;;;;;;22.40;47.11;100080.85;1675763;84;20159;-79
2021/05/30 03:13:35;;;;;;;;;;;;;;;22.40;46.96;100078.95;1675742;84;20551;-78
2021/05/30 03:16:02;;;;;;;;;;;;;;;22.40;46.75;100075.39;1675458;84;20168;-79
2021/05/30 03:18:28;;;;;;;;;;;;;;;22.33;46.76;100069.25;1675558;85;20143;-78
2021/05/30 03:20:54;;;;;;;;;;;;;;;22.26;46.91;100062.05;1674848;84;20219;-77
2021/05/30 03:23:20;;;;;;;;;;;;;;;22.32;46.72;100067.60;1675776;84;20574;-78
2021/05/30 03:25:46;;;;;;;;;;;;;;;22.34;46.62;100077.72;1675693;85;20207;-78
2021/05/30 03:28:12;;;;;;;;;;;;;;;22.33;46.58;100077.44;1675708;84;20233;-78
2021/05/30 03:30:38;;;;;;;;;;;;;;;22.31;46.62;100080.42;1675735;85;20171;-78
2021/05/30 03:33:04;;;;;;;;;;;;;;;22.28;46.72;100077.63;1675392;85;20274;-77
2021/05/30 03:35:31;;;;;;;;;;;;;;;22.28;46.80;100076.27;1675228;84;20591;-77
2021/05/30 03:37:58;;;;;;;;;;;;;;;22.29;46.85;100069.73;1675334;84;20191;-77
2021/05/30 03:40:29;;;;;;;;;;;;;;;22.33;46.87;100073.34;1675340;84;20147;-77
2021/05/30 03:42:53;;;;;;;;;;;;;;;22.34;46.85;100070.36;1675095;84;20235;-77
2021/05/30 03:45:21;;;;;;;;;;;;;;;22.36;46.88;100075.05;1674789;84;20622;-77
2021/05/30 03:47:47;;;;;;;;;;;;;;;22.39;46.75;100076.44;1674461;84;20394;-77
2021/05/30 03:50:15;;;;;;;;;;;;;;;22.36;46.58;100078.32;1674859;84;20231;-77
2021/05/30 03:52:41;;;;;;;;;;;;;;;22.36;46.70;100076.95;1708143;84;20221;-77
2021/05/30 03:55:07;;;;;;;;;;;;;;;22.34;46.60;100074.45;1707592;83;20228;-78
2021/05/30 03:57:35;;;;;;;;;;;;;;;22.34;46.67;100076.35;1691561;84;20159;-77
2021/05/30 04:00:07;;;;;;;;;;;;;;;22.32;46.64;100077.15;1675001;84;20289;-78
2021/05/30 04:02:33;;;;;;;;;;;;;;;22.32;46.62;100083.97;1674728;84;20227;-77
2021/05/30 04:04:59;;;;;;;;;;;;;;;22.32;46.79;100090.25;1677675;84;20219;-77
2021/05/30 04:07:26;;;;;;;;;;;;;;;22.34;46.91;100079.91;1675263;84;20179;-77
2021/05/30 04:09:52;;;;;;;;;;;;;;;22.37;46.95;100082.16;1675239;84;20316;-77
2021/05/30 04:12:17;;;;;;;;;;;;;;;22.41;47.06;100079.77;1674513;85;20246;-77
2021/05/30 04:14:43;;;;;;;;;;;;;;;22.48;47.13;100077.70;1674253;85;20190;-77
2021/05/30 04:17:10;;;;;;;;;;;;;;;22.53;47.04;100077.81;1674708;84;20402;-78
2021/05/30 04:19:36;;;;;;;;;;;;;;;22.59;46.87;100080.09;1674760;84;20535;-77
2021/05/30 04:22:03;;;;;;;;;;;;;;;22.66;46.88;100081.56;1673920;84;20266;-77
2021/05/30 04:24:30;;;;;;;;;;;;;;;22.72;46.95;100091.52;1674663;85;20479;-77
2021/05/30 04:26:57;;;;;;;;;;;;;;;22.82;46.96;100085.94;1675230;84;20214;-76
2021/05/30 04:29:23;;;;;;;;;;;;;;;22.90;46.51;100086.93;1675743;84;20234;-77
2021/05/30 04:31:50;;;;;;;;;;;;;;;22.97;46.37;100090.30;1675497;84;20575;-77
2021/05/30 04:34:17;;;;;;;;;;;;;;;23.05;46.07;100098.09;1675261;85;20559;-77
2021/05/30 04:36:43;;;;;;;;;;;;;;;23.09;45.63;100091.05;1675031;84;20187;-76
2021/05/30 04:39:09;;;;;;;;;;;;;;;23.12;45.35;100097.40;1674529;84;20271;-76
2021/05/30 04:41:35;;;;;;;;;;;;;;;23.13;45.40;100100.41;1673678;85;20270;-76
2021/05/30 04:44:01;;;;;;;;;;;;;;;23.17;45.40;100096.11;1675092;84;20210;-77
2021/05/30 04:46:27;;;;;;;;;;;;;;;23.24;45.31;100100.84;1674998;84;20269;-77
2021/05/30 04:48:54;;;;;;;;;;;;;;;23.32;45.12;100102.88;1653145;84;20229;-76
2021/05/30 04:51:20;;;;;;;;;;;;;;;23.37;44.75;100101.03;1684908;84;20275;-76
2021/05/30 04:53:46;;;;;;;;;;;;;;;23.43;44.41;100112.31;1683634;85;20701;-77
2021/05/30 04:56:17;;;;;;;;;;;;;;;23.45;43.99;100112.91;1683538;85;20257;-77
2021/05/30 04:58:41;;;;;;;;;;;;;;;23.45;44.01;100123.02;1683598;85;20262;-77
2021/05/30 05:01:07;;;;;;;;;;;;;;;23.45;43.94;100125.75;1688198;83;20181;-77
2021/05/30 05:03:34;;;;;;;;;;;;;;;23.46;43.77;100126.04;1689407;85;20295;-77
2021/05/30 05:06:00;;;;;;;;;;;;;;;23.45;43.71;100127.95;1689625;83;20276;-76
2021/05/30 05:08:26;;;;;;;;;;;;;;;23.48;43.79;100129.33;1687604;83;20546;-77
2021/05/30 05:10:52;;;;;;;;;;;;;;;23.51;43.65;100123.38;1676300;85;20162;-77
2021/05/30 05:13:19;;;;;;;;;;;;;;;23.52;43.50;100126.39;1670133;85;20198;-77
2021/05/30 05:15:47;;;;;;;;;;;;;;;23.53;43.39;100122.59;1679850;85;20567;-77
2021/05/30 05:18:17;;;;;;;;;;;;;;;23.53;43.35;100119.86;1679634;85;20635;-76
2021/05/30 05:20:44;;;;;;;;;;;;;;;23.53;43.57;100115.77;1676290;85;20267;-77
2021/05/30 05:23:14;;;;;;;;;;;;;;;23.58;43.60;100114.47;1679511;85;20276;-77
2021/05/30 05:25:41;;;;;;;;;;;;;;;23.64;43.50;100112.63;1679562;85;20213;-77
2021/05/30 05:28:07;;;;;;;;;;;;;;;23.64;43.09;100109.38;1680833;85;20302;-77
2021/05/30 05:30:33;;;;;;;;;;;;;;;23.66;42.57;100114.03;1679702;85;20269;-77
2021/05/30 05:33:01;;;;;;;;;;;;;;;23.64;42.45;100118.95;1680124;85;20355;-76
2021/05/30 05:35:28;;;;;;;;;;;;;;;23.63;42.81;100122.73;1679541;85;20257;-76
2021/05/30 05:37:56;;;;;;;;;;;;;;;23.66;42.59;100125.52;1679237;85;20257;-77
2021/05/30 05:40:23;;;;;;;;;;;;;;;23.65;42.26;100117.86;1675440;85;20625;-76
2021/05/30 05:42:49;;;;;;;;;;;;;;;23.64;42.41;100117.58;1679263;85;20276;-77
2021/05/30 05:45:17;;;;;;;;;;;;;;;23.66;42.74;100120.88;1679738;85;20237;-77
2021/05/30 05:47:44;;;;;;;;;;;;;;;23.71;42.58;100129.69;1668542;85;20282;-77
2021/05/30 05:50:12;;;;;;;;;;;;;;;23.80;42.24;100141.87;1678994;85;20904;-77
2021/05/30 05:52:39;;;;;;;;;;;;;;;23.85;42.11;100140.57;1679061;85;20633;-76
2021/05/30 05:55:07;;;;;;;;;;;;;;;23.88;42.27;100136.48;1677929;85;20451;-77
2021/05/30 05:57:34;;;;;;;;;;;;;;;23.98;42.28;100146.18;1678842;85;20248;-77
2021/05/30 06:00:00;;;;;;;;;;;;;;;24.07;41.92;100139.73;1677860;85;20290;-78
2021/05/30 06:02:26;;;;;;;;;;;;;;;24.14;41.57;100141.20;1676770;85;20554;-78
2021/05/30 06:04:52;;;;;;;;;;;;;;;24.20;41.24;100138.80;1677212;85;20229;-77
2021/05/30 06:07:18;;;;;;;;;;;;;;;24.29;41.56;100135.06;1678267;85;20225;-76
2021/05/30 06:09:45;;;;;;;;;;;;;;;24.42;41.31;100125.66;1677789;85;20285;-76
2021/05/30 06:12:12;;;;;;;;;;;;;;;24.54;41.18;100131.28;1679125;85;20225;-76
2021/05/30 06:14:38;;;;;;;;;;;;;;;24.67;41.31;100134.15;1678125;85;20294;-77
2021/05/30 06:17:04;;;;;;;;;;;;;;;24.81;40.92;100131.81;1677570;85;20687;-77
2021/05/30 06:19:31;;;;;;;;;;;;;;;24.98;40.77;100133.03;1677020;85;20325;-76
2021/05/30 06:21:57;;;;;;;;;;;;;;;25.14;40.61;100128.00;1677885;85;20218;-76
2021/05/30 06:24:23;;;;;;;;;;;;;;;25.34;40.27;100139.65;1677658;85;20627;-76
2021/05/30 06:26:49;;;;;;;;;;;;;;;25.51;39.90;100147.72;1676717;85;20293;-77
2021/05/30 06:29:15;;;;;;;;;;;;;;;25.67;39.91;100142.63;1677525;85;20335;-76
2021/05/30 06:31:42;;;;;;;;;;;;;;;25.86;39.52;100143.58;1665978;85;20311;-78
2021/05/30 06:34:14;;;;;;;;;;;;;;;26.01;39.27;100143.64;1651841;86;20303;-77
2021/05/30 06:36:36;;;;;;;;;;;;;;;26.14;38.71;100142.32;1651099;86;20207;-76
2021/05/30 06:39:02;;;;;;;;;;;;;;;26.25;38.71;100144.84;1651880;86;20311;-77
2021/05/30 06:41:29;;;;;;;;;;;;;;;26.38;38.43;100145.41;1651435;86;20302;-76
2021/05/30 06:43:56;;;;;;;;;;;;;;;26.50;38.17;100152.34;1651097;86;20224;-76
2021/05/30 06:46:24;;;;;;;;;;;;;;;26.67;38.00;100149.37;1652320;87;20616;-76
2021/05/30 06:48:50;;;;;;;;;;;;;;;26.83;37.93;100152.13;1651255;86;20300;-76
2021/05/30 06:51:16;;;;;;;;;;;;;;;26.99;37.55;100149.68;1651409;86;20315;-76
2021/05/30 06:53:47;;;;;;;;;;;;;;;27.17;37.49;100156.03;1651842;86;20296;-76
2021/05/30 06:56:13;;;;;;;;;;;;;;;27.35;36.86;100153.83;1653907;85;20323;-77
2021/05/30 06:58:39;;;;;;;;;;;;;;;27.52;36.70;100155.14;1665271;83;20226;-76
2021/05/30 07:01:06;;;;;;;;;;;;;;;27.73;36.25;100156.52;1675957;84;20302;-77
2021/05/30 07:03:32;;;;;;;;;;;;;;;27.91;35.89;100156.47;1679256;85;20288;-77
2021/05/30 07:05:59;;;;;;;;;;;;;;;28.07;35.69;100155.33;1678186;85;20315;-77
2021/05/30 07:08:26;;;;;;;;;;;;;;;28.24;35.35;100155.77;1676684;84;20312;-78
2021/05/30 07:10:53;;;;;;;;;;;;;;;28.41;34.92;100157.39;1677600;85;20732;-77
2021/05/30 07:13:20;;;;;;;;;;;;;;;28.52;34.15;100162.56;1680154;84;20621;-77
2021/05/30 07:15:48;;;;;;;;;;;;;;;28.60;33.91;100158.37;1679583;85;20206;-76
2021/05/30 07:18:14;;;;;;;;;;;;;;;28.70;33.80;100159.67;1680695;85;20230;-76
2021/05/30 07:20:43;;;;;;;;;;;;;;;28.79;33.59;100167.60;1679317;84;20267;-76
2021/05/30 07:23:09;;;;;;;;;;;;;;;28.87;33.49;100170.88;1679152;85;20238;-76
2021/05/30 07:25:37;;;;;;;;;;;;;;;28.93;33.22;100173.85;1674815;84;20582;-76
2021/05/30 07:28:04;;;;;;;;;;;;;;;28.97;33.32;100170.83;1675935;85;20239;-76
2021/05/30 07:30:30;;;;;;;;;;;;;;;29.04;33.21;100179.61;1683380;83;20281;-76
2021/05/30 07:32:56;;;;;;;;;;;;;;;29.11;33.08;100175.95;1675166;85;20296;-76
2021/05/30 07:35:22;;;;;;;;;;;;;;;29.17;33.25;100174.81;1677042;85;20312;-77
2021/05/30 07:37:48;;;;;;;;;;;;;;;29.25;33.29;100185.23;1677361;85;20599;-77
2021/05/30 07:40:15;;;;;;;;;;;;;;;29.33;32.81;100180.45;1677335;85;20309;-77
2021/05/30 07:42:49;;;;;;;;;;;;;;;29.35;32.52;100187.64;1676244;85;20329;-78
2021/05/30 07:45:17;;;;;;;;;;;;;;;29.34;32.55;100193.68;1675931;85;20289;-79
2021/05/30 07:47:43;;;;;;;;;;;;;;;29.38;32.60;100198.89;1677957;85;20285;-78
2021/05/30 07:50:09;;;;;;;;;;;;;;;29.41;32.72;100187.84;1679026;85;20538;-78
2021/05/30 07:52:36;;;;;;;;;;;;;;;29.43;32.21;100191.12;1679110;85;20562;-78
2021/05/30 07:55:03;;;;;;;;;;;;;;;29.41;32.20;100193.36;1679650;85;20286;-77
2021/05/30 07:57:29;;;;;;;;;;;;;;;29.41;32.41;100198.32;1682861;84;20456;-78
2021/05/30 07:59:55;;;;;;;;;;;;;;;29.40;32.27;100200.82;1679564;85;20260;-78
2021/05/30 08:02:21;;;;;;;;;;;;;;;29.39;32.36;100204.70;1678371;85;20257;-77
2021/05/30 08:04:47;;;;;;;;;;;;;;;29.34;32.50;100201.95;1678398;85;20257;-79
2021/05/30 08:07:14;;;;;;;;;;;;;;;29.33;32.40;100209.97;1678722;85;20317;-78
2021/05/30 08:09:40;;;;;;;;;;;;;;;29.27;32.55;100209.77;1665041;85;20855;-78
2021/05/30 08:12:06;;;;;;;;;;;;;;;29.19;32.68;100203.48;1667185;85;20286;-77
2021/05/30 08:14:32;;;;;;;;;;;;;;;29.03;32.65;100206.92;1676428;84;20302;-77
2021/05/30 08:17:00;;;;;;;;;;;;;;;28.86;32.53;100207.27;1675932;85;20541;-78
2021/05/30 08:19:26;;;;;;;;;;;;;;;28.66;32.90;100217.88;1677687;85;20312;-78
2021/05/30 08:21:53;;;;;;;;;;;;;;;28.49;33.20;100221.55;1677332;85;20293;-78
2021/05/30 08:24:20;;;;;;;;;;;;;;;28.32;33.37;100221.86;1677892;85;20293;-78
2021/05/30 08:26:46;;;;;;;;;;;;;;;28.09;33.41;100224.69;1677697;85;20296;-77
2021/05/30 08:29:14;;;;;;;;;;;;;;;27.90;33.65;100219.52;1677035;85;20380;-77
2021/05/30 08:31:40;;;;;;;;;;;;;;;27.73;33.96;100220.64;1679103;85;20318;-78
2021/05/30 08:34:06;;;;;;;;;;;;;;;27.58;34.10;100212.39;1679700;85;20224;-78
2021/05/30 08:36:32;;;;;;;;;;;;;;;27.44;34.14;100223.13;1679861;85;20277;-77
2021/05/30 08:38:58;;;;;;;;;;;;;;;27.35;34.94;100219.83;1679872;85;20246;-77
2021/05/30 08:41:24;;;;;;;;;;;;;;;27.35;35.35;100219.83;1679687;84;20221;-77
2021/05/30 08:43:50;;;;;;;;;;;;;;;27.34;35.28;100220.36;1678194;85;20406;-78
2021/05/30 08:46:17;;;;;;;;;;;;;;;27.29;34.96;100221.18;1671140;85;20325;-77
2021/05/30 08:48:45;;;;;;;;;;;;;;;27.21;34.93;100219.00;1678248;85;20455;-77
2021/05/30 08:51:12;;;;;;;;;;;;;;;27.16;35.14;100230.00;1677715;85;20291;-77
2021/05/30 08:53:41;;;;;;;;;;;;;;;27.16;35.58;100220.37;1677660;85;20307;-77
2021/05/30 08:56:07;;;;;;;;;;;;;;;27.18;35.60;100224.22;1666998;84;20330;-77
2021/05/30 08:58:37;;;;;;;;;;;;;;;27.21;35.58;100229.18;1671520;84;20225;-76
2021/05/30 09:01:15;;;;;;;;;;;;;;;27.24;35.71;100233.56;1672180;85;20576;-77
2021/05/30 09:04:03;;;;;;;;;;;;;;;27.30;35.74;100233.03;1673334;85;20332;-77
2021/05/30 09:06:28;;;;;;;;;;;;;;;27.36;35.83;100233.30;1672423;85;20185;-77
2021/05/30 09:08:57;;;;;;;;;;;;;;;27.42;35.70;100231.37;1678659;85;20408;-77
2021/05/30 09:11:50;;;;;;;;;;;;;;;27.41;35.33;100229.17;1654863;85;20309;-78
2021/05/30 09:14:22;;;;;;;;;;;;;;;27.36;35.12;100239.35;1676596;85;20657;-77
2021/05/30 09:17:01;;;;;;;;;;;;;;;27.28;35.08;100240.72;1674234;84;20268;-78
2021/05/30 09:19:42;;;;;;;;;;;;;;;27.19;35.32;100232.19;1672909;85;20241;-78
2021/05/30 09:22:34;;;;;;;;;;;;;;;27.14;35.49;100245.92;1678778;85;20278;-77
2021/05/30 09:25:20;;;;;;;;;;;;;;;27.09;35.92;100246.48;1680413;84;20361;-76
2021/05/30 09:27:57;;;;;;;;;;;;;;;27.04;35.68;100247.27;1677866;85;20693;-77
2021/05/30 09:30:36;;;;;;;;;;;;;;;26.95;35.29;100242.02;1674862;85;20316;-79
2021/05/30 09:33:14;;;;;;;;;;;;;;;26.86;35.55;100243.66;1674341;85;20308;-77
2021/05/30 09:35:44;;;;;;;;;;;;;;;26.78;35.63;100241.70;1681729;84;20212;-80
2021/05/30 09:38:14;;;;;;;;;;;;;;;26.72;35.88;100251.03;1706715;82;20613;-77
2021/05/30 09:40:48;;;;;;;;;;;;;;;26.63;36.16;100258.16;1679580;84;20245;-79
2021/05/30 09:43:20;;;;;;;;;;;;;;;26.58;36.15;100256.77;1679136;85;21167;-77
2021/05/30 09:46:08;;;;;;;;;;;;;;;26.54;36.37;100252.90;1679902;85;20291;-78
2021/05/30 09:48:37;;;;;;;;;;;;;;;26.50;36.44;100244.91;1678707;83;20626;-78
2021/05/30 09:51:24;;;;;;;;;;;;;;;26.48;36.51;100249.83;1670757;84;20236;-78
2021/05/30 09:53:54;;;;;;;;;;;;;;;26.46;36.44;100250.66;1696224;84;20271;-78
2021/05/30 09:56:38;;;;;;;;;;;;;;;26.41;36.40;100250.06;1692661;83;20373;-78
2021/05/30 09:59:07;;;;;;;;;;;;;;;26.40;36.43;100259.95;1694319;84;20300;-77
2021/05/30 10:01:54;;;;;;;;;;;;;;;26.30;36.34;100252.50;1692239;83;20319;-77
2021/05/30 10:04:21;;;;;;;;;;;;;;;26.21;36.35;100263.16;1704332;83;20268;-78
2021/05/30 10:06:48;;;;;;;;;;;;;;;26.15;36.67;100256.52;1695162;84;20208;-79
2021/05/30 10:09:14;;;;;;;;;;;;;;;26.12;36.90;100252.41;1677104;85;20364;-78
2021/05/30 10:11:41;;;;;;;;;;;;;;;26.10;36.89;100250.45;1673053;85;20338;-79
2021/05/30 10:14:08;;;;;;;;;;;;;;;26.08;37.39;100254.02;1677248;85;20364;-79
2021/05/30 10:16:34;;;;;;;;;;;;;;;26.08;37.45;100251.28;1676556;85;20463;-78
2021/05/30 10:19:14;;;;;;;;;;;;;;;26.08;37.34;100251.28;1676256;85;20337;-78
2021/05/30 10:21:43;;;;;;;;;;;;;;;26.05;37.28;100251.80;1670588;85;20692;-79
2021/05/30 10:24:10;;;;;;;;;;;;;;;26.04;37.31;100248.78;1678622;85;20677;-79
2021/05/30 10:26:36;;;;;;;;;;;;;;;26.02;37.23;100250.40;1678747;85;20206;-80
2021/05/30 10:29:14;;;;;;;;;;;;;;;25.99;37.48;100236.41;1666321;85;20614;-80
2021/05/30 10:31:42;;;;;;;;;;;;;;;25.96;37.18;100242.41;1679135;85;20269;-79
2021/05/30 10:34:22;;;;;;;;;;;;;;;26.02;37.52;100236.67;1678953;85;20214;-79
2021/05/30 10:36:59;;;;;;;;;;;;;;;25.96;37.72;100245.16;1676749;84;20300;-78
2021/05/30 10:39:33;;;;;;;;;;;;;;;25.97;37.55;100242.69;1677704;84;20213;-78
2021/05/30 10:42:18;;;;;;;;;;;;;;;25.96;37.24;100247.35;1679184;85;20206;-78
2021/05/30 10:45:05;;;;;;;;;;;;;;;25.92;37.17;100243.48;1678078;85;20289;-78
2021/05/30 10:47:46;;;;;;;;;;;;;;;25.89;37.13;100252.78;1678648;83;20656;-77
2021/05/30 10:50:17;;;;;;;;;;;;;;;25.87;37.03;100256.34;1677665;85;20317;-80
2021/05/30 10:52:44;;;;;;;;;;;;;;;25.84;37.13;100253.58;1678239;85;20257;-77
2021/05/30 10:55:19;;;;;;;;;;;;;;;25.85;37.27;100254.43;1678099;85;20338;-77
2021/05/30 10:57:50;;;;;;;;;;;;;;;25.84;37.55;100259.06;1679064;85;20733;-77
2021/05/30 11:00:21;;;;;;;;;;;;;;;25.84;37.45;100260.98;1678256;85;20465;-77
2021/05/30 11:03:08;;;;;;;;;;;;;;;25.83;37.36;100262.08;1679661;85;20304;-77
2021/05/30 11:05:51;;;;;;;;;;;;;;;25.82;37.24;100263.18;1678023;85;20348;-78
2021/05/30 11:08:31;;;;;;;;;;;;;;;25.82;37.11;100267.30;1679674;85;20237;-78
2021/05/30 11:11:24;;;;;;;;;;;;;;;25.80;37.26;100270.31;1679010;85;20403;-78
2021/05/30 11:14:03;;;;;;;;;;;;;;;25.79;37.27;100269.45;1677567;85;20318;-78
2021/05/30 11:16:30;;;;;;;;;;;;;;;25.80;37.61;100271.69;1678738;85;20313;-78
2021/05/30 11:19:03;;;;;;;;;;;;;;;25.74;37.39;100262.53;1676372;85;20293;-78
2021/05/30 11:21:40;;;;;;;;;;;;;;;25.74;37.05;100262.53;1679571;85;20286;-78
2021/05/30 11:24:09;;;;;;;;;;;;;;;25.73;37.15;100267.75;1679777;85;20273;-77
2021/05/30 11:26:35;;;;;;;;;;;;;;;25.72;37.22;100270.77;1676618;84;20270;-77
2021/05/30 11:29:01;;;;;;;;;;;;;;;25.69;37.10;100272.65;1665214;85;20293;-77
2021/05/30 11:31:28;;;;;;;;;;;;;;;25.69;36.77;100276.77;1678023;84;20308;-78
2021/05/30 11:34:03;;;;;;;;;;;;;;;25.63;36.70;100262.19;1673045;85;20266;-78
2021/05/30 11:36:32;;;;;;;;;;;;;;;25.60;36.81;100268.73;1671758;84;20578;-78
2021/05/30 11:39:11;;;;;;;;;;;;;;;25.57;36.89;100271.45;1672270;84;20166;-78
2021/05/30 11:41:45;;;;;;;;;;;;;;;25.55;37.21;100274.46;1672888;85;20258;-79
2021/05/30 11:44:21;;;;;;;;;;;;;;;25.55;37.24;100273.64;1673648;85;20249;-79
2021/05/30 11:46:52;;;;;;;;;;;;;;;25.56;37.34;100273.91;1672670;84;20250;-80
2021/05/30 11:49:26;;;;;;;;;;;;;;;25.56;37.67;100270.63;1674494;84;20297;-79
2021/05/30 11:52:05;;;;;;;;;;;;;;;25.59;37.73;100267.91;1696365;84;20293;-78
2021/05/30 11:54:45;;;;;;;;;;;;;;;25.60;37.86;100272.86;1679919;83;20326;-77
2021/05/30 11:57:19;;;;;;;;;;;;;;;25.61;37.73;100275.32;1673675;84;20304;-78
2021/05/30 11:59:56;;;;;;;;;;;;;;;25.61;37.66;100282.18;1680424;83;20281;-77
2021/05/30 12:02:37;;;;;;;;;;;;;;;25.61;37.14;100277.24;1677021;85;20317;-78
2021/05/30 12:05:13;;;;;;;;;;;;;;;25.61;37.15;100279.44;1677432;85;20205;-78
2021/05/30 12:07:40;;;;;;;;;;;;;;;25.59;37.21;100281.63;1677167;84;20297;-78
2021/05/30 12:10:07;;;;;;;;;;;;;;;25.59;37.06;100274.77;1677622;85;20301;-77
2021/05/30 12:12:36;;;;;;;;;;;;;;;25.59;37.06;100281.63;1679282;85;20610;-77
2021/05/30 12:15:14;;;;;;;;;;;;;;;25.50;37.12;100284.57;1684476;83;20437;-79
2021/05/30 12:17:52;;;;;;;;;;;;;;;25.46;37.09;100284.80;1674988;84;20313;-78
2021/05/30 12:20:22;;;;;;;;;;;;;;;25.43;37.67;100277.09;1678405;85;20293;-78
2021/05/30 12:22:49;;;;;;;;;;;;;;;25.35;37.90;100280.33;1681462;83;20315;-78
2021/05/30 12:25:16;;;;;;;;;;;;;;;25.32;38.25;100278.09;1667724;85;20325;-77
2021/05/30 12:27:42;;;;;;;;;;;;;;;25.37;38.06;100275.41;1678758;85;20310;-79
2021/05/30 12:30:11;;;;;;;;;;;;;;;25.35;38.25;100279.78;1679977;85;20312;-79
2021/05/30 12:32:37;;;;;;;;;;;;;;;25.33;38.69;100277.83;1680132;85;20593;-79
2021/05/30 12:35:04;;;;;;;;;;;;;;;25.29;38.68;100280.26;1679991;85;20202;-80
2021/05/30 12:37:39;;;;;;;;;;;;;;;25.22;39.15;100280.20;1679901;85;20214;-79
2021/05/30 12:40:09;;;;;;;;;;;;;;;25.16;39.42;100275.19;1677595;85;20274;-79
2021/05/30 12:42:36;;;;;;;;;;;;;;;25.15;39.54;100280.40;1679896;85;20610;-79
2021/05/30 12:45:07;;;;;;;;;;;;;;;25.14;39.30;100286.14;1674816;85;20278;-78